TAF KAPF
AMD KAPF 090911Z 0909/1006 VRB03KT 3SM BR SCT005 BKN010 TEMPO 0909/0911 1/2SM FG BKN003 FM091600 11006KT P6SM FEW015 SCT030 FM092000 23008KT P6SM FEW030 SCT050=
METAR KAPF
WC KAPF
WS KAPF
WV KAPF